sensor_id;sensor_type;location;lat;lon;timestamp;temperature;humidity
1506;DHT22;744;51.436;7.356;2022-08-19T00:01:30;23.20;47.30
1506;DHT22;744;51.436;7.356;2022-08-19T00:04:06;23.20;47.50
1506;DHT22;744;51.436;7.356;2022-08-19T00:06:35;23.20;48.10
1506;DHT22;744;51.436;7.356;2022-08-19T00:09:04;23.20;47.50
1506;DHT22;744;51.436;7.356;2022-08-19T00:11:32;23.20;48.10
1506;DHT22;744;51.436;7.356;2022-08-19T00:14:01;23.20;47.30
1506;DHT22;744;51.436;7.356;2022-08-19T00:16:28;23.20;47.30
1506;DHT22;744;51.436;7.356;2022-08-19T00:18:55;23.10;47.30
1506;DHT22;744;51.436;7.356;2022-08-19T00:21:23;23.10;47.30
1506;DHT22;744;51.436;7.356;2022-08-19T00:23:50;23.10;47.40
1506;DHT22;744;51.436;7.356;2022-08-19T00:26:17;23.00;47.40
1506;DHT22;744;51.436;7.356;2022-08-19T00:28:44;23.00;47.50
1506;DHT22;744;51.436;7.356;2022-08-19T00:31:10;23.00;47.70
1506;DHT22;744;51.436;7.356;2022-08-19T00:33:37;23.00;48.00
1506;DHT22;744;51.436;7.356;2022-08-19T00:36:07;23.00;48.10
1506;DHT22;744;51.436;7.356;2022-08-19T00:38:36;23.00;48.20
1506;DHT22;744;51.436;7.356;2022-08-19T00:41:07;23.00;48.30
1506;DHT22;744;51.436;7.356;2022-08-19T00:43:34;23.00;48.30
1506;DHT22;744;51.436;7.356;2022-08-19T00:46:01;23.00;48.20
1506;DHT22;744;51.436;7.356;2022-08-19T00:48:32;23.00;48.10
1506;DHT22;744;51.436;7.356;2022-08-19T00:51:00;22.90;47.80
1506;DHT22;744;51.436;7.356;2022-08-19T00:53:31;22.90;47.90
1506;DHT22;744;51.436;7.356;2022-08-19T00:56:01;22.80;48.00
1506;DHT22;744;51.436;7.356;2022-08-19T00:58:31;22.80;47.90
1506;DHT22;744;51.436;7.356;2022-08-19T01:01:01;22.70;48.10
1506;DHT22;744;51.436;7.356;2022-08-19T01:03:28;22.70;48.00
1506;DHT22;744;51.436;7.356;2022-08-19T01:06:15;22.60;47.90
1506;DHT22;744;51.436;7.356;2022-08-19T01:08:46;22.60;48.10
1506;DHT22;744;51.436;7.356;2022-08-19T01:11:16;22.60;48.30
1506;DHT22;744;51.436;7.356;2022-08-19T01:13:44;22.60;48.20
1506;DHT22;744;51.436;7.356;2022-08-19T01:16:17;22.50;48.20
1506;DHT22;744;51.436;7.356;2022-08-19T01:18:44;22.50;48.40
1506;DHT22;744;51.436;7.356;2022-08-19T01:23:56;22.50;48.80
1506;DHT22;744;51.436;7.356;2022-08-19T01:26:24;22.50;49.10
1506;DHT22;744;51.436;7.356;2022-08-19T01:28:54;22.50;49.10
1506;DHT22;744;51.436;7.356;2022-08-19T01:31:28;22.50;49.20
1506;DHT22;744;51.436;7.356;2022-08-19T01:33:59;22.50;49.20
1506;DHT22;744;51.436;7.356;2022-08-19T01:36:29;22.40;49.10
1506;DHT22;744;51.436;7.356;2022-08-19T01:38:57;22.40;49.00
1506;DHT22;744;51.436;7.356;2022-08-19T01:41:24;22.50;49.00
1506;DHT22;744;51.436;7.356;2022-08-19T01:43:52;22.40;49.10
1506;DHT22;744;51.436;7.356;2022-08-19T01:46:39;22.40;49.10
1506;DHT22;744;51.436;7.356;2022-08-19T01:49:07;22.40;49.00
1506;DHT22;744;51.436;7.356;2022-08-19T01:51:34;22.40;49.00
1506;DHT22;744;51.436;7.356;2022-08-19T01:54:07;22.40;49.00
1506;DHT22;744;51.436;7.356;2022-08-19T01:56:34;22.40;49.10
1506;DHT22;744;51.436;7.356;2022-08-19T01:59:04;22.40;49.00
1506;DHT22;744;51.436;7.356;2022-08-19T02:01:32;22.40;49.00
1506;DHT22;744;51.436;7.356;2022-08-19T02:04:01;22.40;49.10
1506;DHT22;744;51.436;7.356;2022-08-19T02:06:29;22.40;49.10
1506;DHT22;744;51.436;7.356;2022-08-19T02:08:56;22.40;49.00
1506;DHT22;744;51.436;7.356;2022-08-19T02:11:29;22.50;49.00
1506;DHT22;744;51.436;7.356;2022-08-19T02:13:59;22.50;49.10
1506;DHT22;744;51.436;7.356;2022-08-19T02:16:26;22.50;49.80
1506;DHT22;744;51.436;7.356;2022-08-19T02:18:53;22.40;49.10
1506;DHT22;744;51.436;7.356;2022-08-19T02:21:21;22.40;49.10
1506;DHT22;744;51.436;7.356;2022-08-19T02:23:49;22.40;49.70
1506;DHT22;744;51.436;7.356;2022-08-19T02:26:17;22.40;48.70
1506;DHT22;744;51.436;7.356;2022-08-19T02:28:44;22.30;48.60
1506;DHT22;744;51.436;7.356;2022-08-19T02:31:17;22.30;49.00
1506;DHT22;744;51.436;7.356;2022-08-19T02:33:45;22.20;48.90
1506;DHT22;744;51.436;7.356;2022-08-19T02:36:14;22.10;48.80
1506;DHT22;744;51.436;7.356;2022-08-19T02:38:42;22.10;48.80
1506;DHT22;744;51.436;7.356;2022-08-19T02:41:24;22.10;48.80
1506;DHT22;744;51.436;7.356;2022-08-19T02:43:54;22.10;48.80
1506;DHT22;744;51.436;7.356;2022-08-19T02:46:41;22.10;48.80
1506;DHT22;744;51.436;7.356;2022-08-19T02:49:08;22.10;48.80
1506;DHT22;744;51.436;7.356;2022-08-19T02:51:37;22.00;48.70
1506;DHT22;744;51.436;7.356;2022-08-19T02:54:07;22.00;48.70
1506;DHT22;744;51.436;7.356;2022-08-19T02:56:37;22.00;48.70
1506;DHT22;744;51.436;7.356;2022-08-19T02:59:05;22.00;48.70
1506;DHT22;744;51.436;7.356;2022-08-19T03:01:39;22.00;48.70
1506;DHT22;744;51.436;7.356;2022-08-19T03:04:08;22.00;48.70
1506;DHT22;744;51.436;7.356;2022-08-19T03:06:39;22.00;48.70
1506;DHT22;744;51.436;7.356;2022-08-19T03:09:07;22.00;48.70
1506;DHT22;744;51.436;7.356;2022-08-19T03:11:34;22.00;49.20
1506;DHT22;744;51.436;7.356;2022-08-19T03:14:03;21.90;49.10
1506;DHT22;744;51.436;7.356;2022-08-19T03:16:33;21.90;48.90
1506;DHT22;744;51.436;7.356;2022-08-19T03:19:01;21.90;48.70
1506;DHT22;744;51.436;7.356;2022-08-19T03:21:30;21.90;48.70
1506;DHT22;744;51.436;7.356;2022-08-19T03:23:59;21.90;49.10
1506;DHT22;744;51.436;7.356;2022-08-19T03:26:26;21.90;49.10
1506;DHT22;744;51.436;7.356;2022-08-19T03:28:53;21.80;49.30
1506;DHT22;744;51.436;7.356;2022-08-19T03:31:26;21.90;49.40
1506;DHT22;744;51.436;7.356;2022-08-19T03:34:33;21.90;49.20
1506;DHT22;744;51.436;7.356;2022-08-19T03:37:05;21.80;48.90
1506;DHT22;744;51.436;7.356;2022-08-19T03:39:33;21.80;49.10
1506;DHT22;744;51.436;7.356;2022-08-19T03:41:59;21.80;49.20
1506;DHT22;744;51.436;7.356;2022-08-19T03:44:48;21.70;49.20
1506;DHT22;744;51.436;7.356;2022-08-19T03:47:15;21.70;49.30
1506;DHT22;744;51.436;7.356;2022-08-19T03:49:44;21.70;49.40
1506;DHT22;744;51.436;7.356;2022-08-19T03:52:11;21.70;49.40
1506;DHT22;744;51.436;7.356;2022-08-19T03:54:38;21.70;49.50
1506;DHT22;744;51.436;7.356;2022-08-19T03:57:06;21.70;49.60
1506;DHT22;744;51.436;7.356;2022-08-19T03:59:35;21.70;49.60
1506;DHT22;744;51.436;7.356;2022-08-19T04:02:07;21.70;49.60
1506;DHT22;744;51.436;7.356;2022-08-19T04:04:37;21.70;49.70
1506;DHT22;744;51.436;7.356;2022-08-19T04:07:04;21.70;49.60
1506;DHT22;744;51.436;7.356;2022-08-19T04:09:33;21.70;49.70
1506;DHT22;744;51.436;7.356;2022-08-19T04:12:00;21.70;49.70
1506;DHT22;744;51.436;7.356;2022-08-19T04:14:29;21.70;49.60
1506;DHT22;744;51.436;7.356;2022-08-19T04:17:00;21.60;49.50
1506;DHT22;744;51.436;7.356;2022-08-19T04:19:29;21.70;49.50
1506;DHT22;744;51.436;7.356;2022-08-19T04:21:56;21.70;49.50
1506;DHT22;744;51.436;7.356;2022-08-19T04:24:23;21.50;49.40
1506;DHT22;744;51.436;7.356;2022-08-19T04:26:51;21.50;49.40
1506;DHT22;744;51.436;7.356;2022-08-19T04:29:21;21.50;49.60
1506;DHT22;744;51.436;7.356;2022-08-19T04:31:52;21.60;49.70
1506;DHT22;744;51.436;7.356;2022-08-19T04:34:21;21.60;49.60
1506;DHT22;744;51.436;7.356;2022-08-19T04:36:50;21.60;49.70
1506;DHT22;744;51.436;7.356;2022-08-19T04:39:21;21.60;49.60
1506;DHT22;744;51.436;7.356;2022-08-19T04:41:48;21.60;49.50
1506;DHT22;744;51.436;7.356;2022-08-19T04:44:35;21.60;49.50
1506;DHT22;744;51.436;7.356;2022-08-19T04:47:11;21.60;49.60
1506;DHT22;744;51.436;7.356;2022-08-19T04:49:38;21.50;49.60
1506;DHT22;744;51.436;7.356;2022-08-19T04:52:05;21.50;49.80
1506;DHT22;744;51.436;7.356;2022-08-19T04:54:32;21.50;49.90
1506;DHT22;744;51.436;7.356;2022-08-19T04:57:06;21.50;50.00
1506;DHT22;744;51.436;7.356;2022-08-19T04:59:36;21.60;50.10
1506;DHT22;744;51.436;7.356;2022-08-19T05:02:03;21.60;50.20
1506;DHT22;744;51.436;7.356;2022-08-19T05:04:30;21.50;50.00
1506;DHT22;744;51.436;7.356;2022-08-19T05:06:59;21.60;50.20
1506;DHT22;744;51.436;7.356;2022-08-19T05:09:28;21.60;50.30
1506;DHT22;744;51.436;7.356;2022-08-19T05:12:15;21.60;50.30
1506;DHT22;744;51.436;7.356;2022-08-19T05:14:43;21.60;50.20
1506;DHT22;744;51.436;7.356;2022-08-19T05:17:11;21.60;50.20
1506;DHT22;744;51.436;7.356;2022-08-19T05:19:53;21.60;50.20
1506;DHT22;744;51.436;7.356;2022-08-19T05:22:39;21.60;50.20
1506;DHT22;744;51.436;7.356;2022-08-19T05:25:13;21.60;50.20
1506;DHT22;744;51.436;7.356;2022-08-19T05:27:41;21.70;50.40
1506;DHT22;744;51.436;7.356;2022-08-19T05:30:09;21.70;50.40
1506;DHT22;744;51.436;7.356;2022-08-19T05:32:37;21.70;50.40
1506;DHT22;744;51.436;7.356;2022-08-19T05:35:05;21.70;50.50
1506;DHT22;744;51.436;7.356;2022-08-19T05:37:32;21.70;50.60
1506;DHT22;744;51.436;7.356;2022-08-19T05:39:59;21.80;50.70
1506;DHT22;744;51.436;7.356;2022-08-19T05:42:25;21.80;50.70
1506;DHT22;744;51.436;7.356;2022-08-19T05:44:53;21.80;50.60
1506;DHT22;744;51.436;7.356;2022-08-19T05:47:20;21.90;50.80
1506;DHT22;744;51.436;7.356;2022-08-19T05:49:48;22.00;51.20
1506;DHT22;744;51.436;7.356;2022-08-19T05:52:17;22.10;50.90
1506;DHT22;744;51.436;7.356;2022-08-19T05:54:45;22.20;50.70
1506;DHT22;744;51.436;7.356;2022-08-19T05:57:18;22.30;50.40
1506;DHT22;744;51.436;7.356;2022-08-19T05:59:45;22.40;50.30
1506;DHT22;744;51.436;7.356;2022-08-19T06:02:23;22.50;50.00
1506;DHT22;744;51.436;7.356;2022-08-19T06:04:50;22.50;49.70
1506;DHT22;744;51.436;7.356;2022-08-19T06:07:17;22.50;49.80
1506;DHT22;744;51.436;7.356;2022-08-19T06:09:43;22.50;49.80
1506;DHT22;744;51.436;7.356;2022-08-19T06:12:27;22.60;49.90
1506;DHT22;744;51.436;7.356;2022-08-19T06:14:55;22.50;49.70
1506;DHT22;744;51.436;7.356;2022-08-19T06:17:28;22.60;49.90
1506;DHT22;744;51.436;7.356;2022-08-19T06:19:57;22.60;49.90
1506;DHT22;744;51.436;7.356;2022-08-19T06:22:25;22.70;49.90
1506;DHT22;744;51.436;7.356;2022-08-19T06:24:52;22.70;49.70
1506;DHT22;744;51.436;7.356;2022-08-19T06:27:20;22.70;49.50
1506;DHT22;744;51.436;7.356;2022-08-19T06:29:47;22.80;49.50
1506;DHT22;744;51.436;7.356;2022-08-19T06:32:16;22.80;49.40
1506;DHT22;744;51.436;7.356;2022-08-19T06:34:43;22.90;49.50
1506;DHT22;744;51.436;7.356;2022-08-19T06:37:11;22.90;49.50
1506;DHT22;744;51.436;7.356;2022-08-19T06:39:39;22.80;49.40
1506;DHT22;744;51.436;7.356;2022-08-19T06:42:07;22.80;49.60
1506;DHT22;744;51.436;7.356;2022-08-19T06:44:37;22.80;49.80
1506;DHT22;744;51.436;7.356;2022-08-19T06:47:10;22.80;50.20
1506;DHT22;744;51.436;7.356;2022-08-19T06:49:49;22.80;50.30
1506;DHT22;744;51.436;7.356;2022-08-19T06:52:16;22.80;50.50
1506;DHT22;744;51.436;7.356;2022-08-19T06:54:43;22.80;50.50
1506;DHT22;744;51.436;7.356;2022-08-19T06:57:23;22.80;50.50
1506;DHT22;744;51.436;7.356;2022-08-19T06:59:50;22.90;50.60
1506;DHT22;744;51.436;7.356;2022-08-19T07:02:17;22.90;50.60
1506;DHT22;744;51.436;7.356;2022-08-19T07:04:49;22.90;50.70
1506;DHT22;744;51.436;7.356;2022-08-19T07:07:19;23.00;50.80
1506;DHT22;744;51.436;7.356;2022-08-19T07:09:48;23.10;50.80
1506;DHT22;744;51.436;7.356;2022-08-19T07:12:29;23.10;50.90
1506;DHT22;744;51.436;7.356;2022-08-19T07:15:05;23.10;50.80
1506;DHT22;744;51.436;7.356;2022-08-19T07:17:32;23.10;50.80
1506;DHT22;744;51.436;7.356;2022-08-19T07:20:01;23.10;50.80
1506;DHT22;744;51.436;7.356;2022-08-19T07:22:35;23.10;50.80
1506;DHT22;744;51.436;7.356;2022-08-19T07:25:02;23.10;50.90
1506;DHT22;744;51.436;7.356;2022-08-19T07:27:30;23.10;51.10
1506;DHT22;744;51.436;7.356;2022-08-19T07:29:59;23.10;51.00
1506;DHT22;744;51.436;7.356;2022-08-19T07:32:26;23.10;51.00
1506;DHT22;744;51.436;7.356;2022-08-19T07:34:54;23.20;51.20
1506;DHT22;744;51.436;7.356;2022-08-19T07:37:23;23.20;51.00
1506;DHT22;744;51.436;7.356;2022-08-19T07:39:58;23.30;51.20
1506;DHT22;744;51.436;7.356;2022-08-19T07:42:25;23.40;51.00
1506;DHT22;744;51.436;7.356;2022-08-19T07:44:53;23.40;51.00
1506;DHT22;744;51.436;7.356;2022-08-19T07:47:19;23.50;51.00
1506;DHT22;744;51.436;7.356;2022-08-19T07:50:09;23.60;50.90
1506;DHT22;744;51.436;7.356;2022-08-19T07:52:38;23.70;50.70
1506;DHT22;744;51.436;7.356;2022-08-19T07:55:08;23.80;50.50
1506;DHT22;744;51.436;7.356;2022-08-19T07:57:57;23.80;50.30
1506;DHT22;744;51.436;7.356;2022-08-19T08:00:23;23.90;50.60
1506;DHT22;744;51.436;7.356;2022-08-19T08:02:52;23.90;50.40
1506;DHT22;744;51.436;7.356;2022-08-19T08:05:22;23.90;50.40
1506;DHT22;744;51.436;7.356;2022-08-19T08:08:11;24.00;50.50
1506;DHT22;744;51.436;7.356;2022-08-19T08:10:58;24.10;50.60
1506;DHT22;744;51.436;7.356;2022-08-19T08:13:25;24.20;50.60
1506;DHT22;744;51.436;7.356;2022-08-19T08:15:53;24.20;50.60
1506;DHT22;744;51.436;7.356;2022-08-19T08:18:22;24.30;50.70
1506;DHT22;744;51.436;7.356;2022-08-19T08:20:54;24.30;50.70
1506;DHT22;744;51.436;7.356;2022-08-19T08:23:22;24.30;50.70
1506;DHT22;744;51.436;7.356;2022-08-19T08:25:49;24.30;50.70
1506;DHT22;744;51.436;7.356;2022-08-19T08:28:17;24.30;50.70
1506;DHT22;744;51.436;7.356;2022-08-19T08:30:47;24.20;50.60
1506;DHT22;744;51.436;7.356;2022-08-19T08:33:24;24.20;50.60
1506;DHT22;744;51.436;7.356;2022-08-19T08:36:04;24.10;50.60
1506;DHT22;744;51.436;7.356;2022-08-19T08:38:32;24.10;50.60
1506;DHT22;744;51.436;7.356;2022-08-19T08:41:31;24.20;50.60
1506;DHT22;744;51.436;7.356;2022-08-19T08:43:56;24.20;50.60
1506;DHT22;744;51.436;7.356;2022-08-19T08:49:06;24.20;50.60
1506;DHT22;744;51.436;7.356;2022-08-19T08:51:40;24.10;50.60
1506;DHT22;744;51.436;7.356;2022-08-19T08:54:16;24.10;50.60
1506;DHT22;744;51.436;7.356;2022-08-19T08:56:44;24.10;50.60
1506;DHT22;744;51.436;7.356;2022-08-19T08:59:24;24.00;50.50
1506;DHT22;744;51.436;7.356;2022-08-19T09:01:52;24.10;50.60
1506;DHT22;744;51.436;7.356;2022-08-19T09:04:20;24.20;50.60
1506;DHT22;744;51.436;7.356;2022-08-19T09:06:58;24.30;50.60
1506;DHT22;744;51.436;7.356;2022-08-19T09:09:48;24.30;50.60
1506;DHT22;744;51.436;7.356;2022-08-19T09:15:07;24.50;50.00
1506;DHT22;744;51.436;7.356;2022-08-19T09:17:35;24.50;49.70
1506;DHT22;744;51.436;7.356;2022-08-19T09:20:23;24.70;49.50
1506;DHT22;744;51.436;7.356;2022-08-19T09:22:51;24.70;49.30
1506;DHT22;744;51.436;7.356;2022-08-19T09:25:21;24.60;48.60
1506;DHT22;744;51.436;7.356;2022-08-19T09:27:55;24.60;48.10
1506;DHT22;744;51.436;7.356;2022-08-19T09:30:31;24.60;47.30
1506;DHT22;744;51.436;7.356;2022-08-19T09:32:59;24.70;46.90
1506;DHT22;744;51.436;7.356;2022-08-19T09:35:27;24.80;46.70
1506;DHT22;744;51.436;7.356;2022-08-19T09:37:56;24.80;46.60
1506;DHT22;744;51.436;7.356;2022-08-19T09:40:27;24.80;46.60
1506;DHT22;744;51.436;7.356;2022-08-19T09:42:56;24.70;46.50
1506;DHT22;744;51.436;7.356;2022-08-19T09:45:24;24.60;46.40
1506;DHT22;744;51.436;7.356;2022-08-19T09:47:51;24.60;46.40
1506;DHT22;744;51.436;7.356;2022-08-19T09:50:21;24.80;46.60
1506;DHT22;744;51.436;7.356;2022-08-19T09:52:48;24.80;46.60
1506;DHT22;744;51.436;7.356;2022-08-19T09:55:25;24.70;46.50
1506;DHT22;744;51.436;7.356;2022-08-19T09:58:00;24.70;46.50
1506;DHT22;744;51.436;7.356;2022-08-19T10:00:27;24.80;46.60
1506;DHT22;744;51.436;7.356;2022-08-19T10:02:54;24.80;46.60
1506;DHT22;744;51.436;7.356;2022-08-19T10:05:20;24.80;46.60
1506;DHT22;744;51.436;7.356;2022-08-19T10:08:20;24.90;46.50
1506;DHT22;744;51.436;7.356;2022-08-19T10:10:52;24.90;46.20
1506;DHT22;744;51.436;7.356;2022-08-19T10:13:23;24.90;46.00
1506;DHT22;744;51.436;7.356;2022-08-19T10:15:53;24.90;46.20
1506;DHT22;744;51.436;7.356;2022-08-19T10:18:22;25.00;45.70
1506;DHT22;744;51.436;7.356;2022-08-19T10:20:50;24.90;45.40
1506;DHT22;744;51.436;7.356;2022-08-19T10:23:19;24.90;45.60
1506;DHT22;744;51.436;7.356;2022-08-19T10:25:47;25.00;45.40
1506;DHT22;744;51.436;7.356;2022-08-19T10:28:15;25.00;45.20
1506;DHT22;744;51.436;7.356;2022-08-19T10:30:45;25.00;45.10
1506;DHT22;744;51.436;7.356;2022-08-19T10:33:12;25.10;45.20
1506;DHT22;744;51.436;7.356;2022-08-19T10:35:40;25.30;45.30
1506;DHT22;744;51.436;7.356;2022-08-19T10:38:21;25.30;43.70
1506;DHT22;744;51.436;7.356;2022-08-19T10:41:06;25.30;43.60
1506;DHT22;744;51.436;7.356;2022-08-19T10:43:33;25.30;43.10
1506;DHT22;744;51.436;7.356;2022-08-19T10:46:08;25.30;43.20
1506;DHT22;744;51.436;7.356;2022-08-19T10:48:42;25.30;43.00
1506;DHT22;744;51.436;7.356;2022-08-19T10:51:11;25.40;42.40
1506;DHT22;744;51.436;7.356;2022-08-19T10:53:58;25.50;42.50
1506;DHT22;744;51.436;7.356;2022-08-19T10:56:26;25.70;42.60
1506;DHT22;744;51.436;7.356;2022-08-19T10:59:12;25.70;42.50
1506;DHT22;744;51.436;7.356;2022-08-19T11:01:42;25.80;42.10
1506;DHT22;744;51.436;7.356;2022-08-19T11:04:09;25.70;40.90
1506;DHT22;744;51.436;7.356;2022-08-19T11:06:48;25.70;41.20
1506;DHT22;744;51.436;7.356;2022-08-19T11:09:21;25.90;41.30
1506;DHT22;744;51.436;7.356;2022-08-19T11:11:59;25.90;41.10
1506;DHT22;744;51.436;7.356;2022-08-19T11:14:30;26.10;41.00
1506;DHT22;744;51.436;7.356;2022-08-19T11:17:00;26.30;40.50
1506;DHT22;744;51.436;7.356;2022-08-19T11:19:27;26.40;40.10
1506;DHT22;744;51.436;7.356;2022-08-19T11:21:53;26.50;39.60
1506;DHT22;744;51.436;7.356;2022-08-19T11:24:25;26.50;38.50
1506;DHT22;744;51.436;7.356;2022-08-19T11:26:58;26.50;38.40
1506;DHT22;744;51.436;7.356;2022-08-19T11:29:27;26.70;38.60
1506;DHT22;744;51.436;7.356;2022-08-19T11:31:55;26.80;38.70
1506;DHT22;744;51.436;7.356;2022-08-19T11:34:25;26.80;39.30
1506;DHT22;744;51.436;7.356;2022-08-19T11:36:54;26.90;39.50
1506;DHT22;744;51.436;7.356;2022-08-19T11:39:27;27.00;38.80
1506;DHT22;744;51.436;7.356;2022-08-19T11:41:54;26.90;38.70
1506;DHT22;744;51.436;7.356;2022-08-19T11:44:21;26.70;38.60
1506;DHT22;744;51.436;7.356;2022-08-19T11:46:48;26.70;38.60
1506;DHT22;744;51.436;7.356;2022-08-19T11:49:19;26.70;38.60
1506;DHT22;744;51.436;7.356;2022-08-19T11:51:48;26.80;38.70
1506;DHT22;744;51.436;7.356;2022-08-19T11:54:17;26.60;38.40
1506;DHT22;744;51.436;7.356;2022-08-19T11:56:44;26.70;38.60
1506;DHT22;744;51.436;7.356;2022-08-19T11:59:12;26.70;38.60
1506;DHT22;744;51.436;7.356;2022-08-19T12:01:40;26.50;38.90
1506;DHT22;744;51.436;7.356;2022-08-19T12:04:09;26.40;39.10
1506;DHT22;744;51.436;7.356;2022-08-19T12:06:38;26.50;38.90
1506;DHT22;744;51.436;7.356;2022-08-19T12:09:06;26.50;38.60
1506;DHT22;744;51.436;7.356;2022-08-19T12:11:35;26.40;38.40
1506;DHT22;744;51.436;7.356;2022-08-19T12:14:04;26.50;38.40
1506;DHT22;744;51.436;7.356;2022-08-19T12:16:32;26.60;38.60
1506;DHT22;744;51.436;7.356;2022-08-19T12:19:00;26.60;38.00
1506;DHT22;744;51.436;7.356;2022-08-19T12:21:32;26.60;37.60
1506;DHT22;744;51.436;7.356;2022-08-19T12:24:00;26.70;37.60
1506;DHT22;744;51.436;7.356;2022-08-19T12:26:29;26.80;37.20
1506;DHT22;744;51.436;7.356;2022-08-19T12:28:55;27.00;36.90
1506;DHT22;744;51.436;7.356;2022-08-19T12:31:22;27.10;36.60
1506;DHT22;744;51.436;7.356;2022-08-19T12:33:49;27.20;36.00
1506;DHT22;744;51.436;7.356;2022-08-19T12:36:16;27.20;35.40
1506;DHT22;744;51.436;7.356;2022-08-19T12:38:44;27.10;35.30
1506;DHT22;744;51.436;7.356;2022-08-19T12:41:13;27.00;35.60
1506;DHT22;744;51.436;7.356;2022-08-19T12:43:41;27.10;35.90
1506;DHT22;744;51.436;7.356;2022-08-19T12:46:09;27.20;35.80
1506;DHT22;744;51.436;7.356;2022-08-19T12:48:37;27.20;35.60
1506;DHT22;744;51.436;7.356;2022-08-19T12:51:10;27.20;35.90
1506;DHT22;744;51.436;7.356;2022-08-19T12:53:37;27.20;35.70
1506;DHT22;744;51.436;7.356;2022-08-19T12:56:06;27.20;35.60
1506;DHT22;744;51.436;7.356;2022-08-19T12:58:38;27.40;35.60
1506;DHT22;744;51.436;7.356;2022-08-19T13:01:07;27.50;35.00
1506;DHT22;744;51.436;7.356;2022-08-19T13:03:35;27.60;34.40
1506;DHT22;744;51.436;7.356;2022-08-19T13:06:06;27.60;34.50
1506;DHT22;744;51.436;7.356;2022-08-19T13:08:34;27.70;34.50
1506;DHT22;744;51.436;7.356;2022-08-19T13:11:14;27.70;34.10
1506;DHT22;744;51.436;7.356;2022-08-19T13:13:42;27.60;33.50
1506;DHT22;744;51.436;7.356;2022-08-19T13:16:11;27.50;33.60
1506;DHT22;744;51.436;7.356;2022-08-19T13:18:40;27.40;33.60
1506;DHT22;744;51.436;7.356;2022-08-19T13:21:09;27.50;33.50
1506;DHT22;744;51.436;7.356;2022-08-19T13:23:38;27.60;33.50
1506;DHT22;744;51.436;7.356;2022-08-19T13:26:06;27.60;32.80
1506;DHT22;744;51.436;7.356;2022-08-19T13:28:35;27.60;32.80
1506;DHT22;744;51.436;7.356;2022-08-19T13:31:23;27.60;33.20
1506;DHT22;744;51.436;7.356;2022-08-19T13:34:09;27.70;32.10
1506;DHT22;744;51.436;7.356;2022-08-19T13:36:37;27.70;31.80
1506;DHT22;744;51.436;7.356;2022-08-19T13:39:05;27.90;31.70
1506;DHT22;744;51.436;7.356;2022-08-19T13:41:32;28.00;31.00
1506;DHT22;744;51.436;7.356;2022-08-19T13:44:00;28.00;31.00
1506;DHT22;744;51.436;7.356;2022-08-19T13:46:28;28.10;30.90
1506;DHT22;744;51.436;7.356;2022-08-19T13:48:56;28.20;31.10
1506;DHT22;744;51.436;7.356;2022-08-19T13:51:23;28.10;30.90
1506;DHT22;744;51.436;7.356;2022-08-19T13:53:50;28.00;31.10
1506;DHT22;744;51.436;7.356;2022-08-19T13:56:18;28.00;31.50
1506;DHT22;744;51.436;7.356;2022-08-19T13:58:51;28.10;31.50
1506;DHT22;744;51.436;7.356;2022-08-19T14:01:21;28.10;31.40
1506;DHT22;744;51.436;7.356;2022-08-19T14:03:50;28.00;31.60
1506;DHT22;744;51.436;7.356;2022-08-19T14:06:18;27.90;31.60
1506;DHT22;744;51.436;7.356;2022-08-19T14:08:46;28.00;31.50
1506;DHT22;744;51.436;7.356;2022-08-19T14:11:13;28.00;31.80
1506;DHT22;744;51.436;7.356;2022-08-19T14:13:40;28.20;31.60
1506;DHT22;744;51.436;7.356;2022-08-19T14:16:09;28.30;31.40
1506;DHT22;744;51.436;7.356;2022-08-19T14:18:36;28.30;31.40
1506;DHT22;744;51.436;7.356;2022-08-19T14:21:04;28.50;31.20
1506;DHT22;744;51.436;7.356;2022-08-19T14:23:32;28.60;30.90
1506;DHT22;744;51.436;7.356;2022-08-19T14:26:11;28.60;30.20
1506;DHT22;744;51.436;7.356;2022-08-19T14:28:39;28.50;30.90
1506;DHT22;744;51.436;7.356;2022-08-19T14:31:10;28.50;30.20
1506;DHT22;744;51.436;7.356;2022-08-19T14:33:37;28.50;30.20
1506;DHT22;744;51.436;7.356;2022-08-19T14:36:04;28.50;30.20
1506;DHT22;744;51.436;7.356;2022-08-19T14:38:31;28.60;30.20
1506;DHT22;744;51.436;7.356;2022-08-19T14:41:13;28.60;30.20
1506;DHT22;744;51.436;7.356;2022-08-19T14:43:44;28.60;30.20
1506;DHT22;744;51.436;7.356;2022-08-19T14:46:15;28.60;30.20
1506;DHT22;744;51.436;7.356;2022-08-19T14:48:43;28.40;30.10
1506;DHT22;744;51.436;7.356;2022-08-19T14:51:11;28.30;30.10
1506;DHT22;744;51.436;7.356;2022-08-19T14:53:41;28.40;30.10
1506;DHT22;744;51.436;7.356;2022-08-19T14:56:13;28.40;30.10
1506;DHT22;744;51.436;7.356;2022-08-19T14:58:43;28.50;30.20
1506;DHT22;744;51.436;7.356;2022-08-19T15:01:11;28.60;30.20
1506;DHT22;744;51.436;7.356;2022-08-19T15:03:39;28.80;30.00
1506;DHT22;744;51.436;7.356;2022-08-19T15:06:08;28.80;29.90
1506;DHT22;744;51.436;7.356;2022-08-19T15:08:39;28.80;29.80
1506;DHT22;744;51.436;7.356;2022-08-19T15:11:09;28.80;29.70
1506;DHT22;744;51.436;7.356;2022-08-19T15:13:36;28.80;29.80
1506;DHT22;744;51.436;7.356;2022-08-19T15:16:03;28.80;29.60
1506;DHT22;744;51.436;7.356;2022-08-19T15:18:31;28.80;29.80
1506;DHT22;744;51.436;7.356;2022-08-19T15:20:59;28.70;29.70
1506;DHT22;744;51.436;7.356;2022-08-19T15:23:26;28.60;30.00
1506;DHT22;744;51.436;7.356;2022-08-19T15:25:53;28.60;29.60
1506;DHT22;744;51.436;7.356;2022-08-19T15:28:23;28.40;30.00
1506;DHT22;744;51.436;7.356;2022-08-19T15:30:51;28.10;30.00
1506;DHT22;744;51.436;7.356;2022-08-19T15:33:19;28.00;30.00
1506;DHT22;744;51.436;7.356;2022-08-19T15:35:47;28.00;30.00
1506;DHT22;744;51.436;7.356;2022-08-19T15:38:18;28.00;30.00
1506;DHT22;744;51.436;7.356;2022-08-19T15:40:50;27.90;30.00
1506;DHT22;744;51.436;7.356;2022-08-19T15:43:18;27.80;30.20
1506;DHT22;744;51.436;7.356;2022-08-19T15:45:47;27.90;30.50
1506;DHT22;744;51.436;7.356;2022-08-19T15:48:15;27.90;29.90
1506;DHT22;744;51.436;7.356;2022-08-19T15:50:42;27.80;30.10
1506;DHT22;744;51.436;7.356;2022-08-19T15:53:09;28.00;30.00
1506;DHT22;744;51.436;7.356;2022-08-19T15:55:43;28.00;30.00
1506;DHT22;744;51.436;7.356;2022-08-19T15:58:12;28.00;30.00
1506;DHT22;744;51.436;7.356;2022-08-19T16:00:59;28.00;30.00
1506;DHT22;744;51.436;7.356;2022-08-19T16:03:47;27.90;29.90
1506;DHT22;744;51.436;7.356;2022-08-19T16:06:52;28.00;30.00
1506;DHT22;744;51.436;7.356;2022-08-19T16:09:20;27.90;30.00
1506;DHT22;744;51.436;7.356;2022-08-19T16:12:01;28.00;30.00
1506;DHT22;744;51.436;7.356;2022-08-19T16:14:32;28.10;30.00
1506;DHT22;744;51.436;7.356;2022-08-19T16:16:59;28.30;30.10
1506;DHT22;744;51.436;7.356;2022-08-19T16:19:27;28.30;30.10
1506;DHT22;744;51.436;7.356;2022-08-19T16:21:55;28.30;30.10
1506;DHT22;744;51.436;7.356;2022-08-19T16:24:25;28.30;30.10
1506;DHT22;744;51.436;7.356;2022-08-19T16:26:53;28.40;30.10
1506;DHT22;744;51.436;7.356;2022-08-19T16:29:20;28.40;30.10
1506;DHT22;744;51.436;7.356;2022-08-19T16:32:08;28.50;30.20
1506;DHT22;744;51.436;7.356;2022-08-19T16:34:39;28.50;30.20
1506;DHT22;744;51.436;7.356;2022-08-19T16:37:07;28.60;30.20
1506;DHT22;744;51.436;7.356;2022-08-19T16:39:35;28.60;30.20
1506;DHT22;744;51.436;7.356;2022-08-19T16:42:02;28.60;30.20
1506;DHT22;744;51.436;7.356;2022-08-19T16:44:33;28.50;30.20
1506;DHT22;744;51.436;7.356;2022-08-19T16:47:00;28.30;30.10